Time;durP1;ratioP1;P1;durP2;ratioP2;P2;SDS_P1;SDS_P2;PMS_P1;PMS_P2;Temp;Humidity;BMP_temperature;BMP_pressure;BME280_temperature;BME280_humidity;BME280_pressure;Samples;Min_cycle;Max_cycle;Signal;HPM_P1;HPM_P2
2022/09/25 00:00:35;;;;;;;9.93;6.80;;;11.70;99.90;;;;;;6240632;23;20012;-81
2022/09/25 00:03:00;;;;;;;6.38;5.70;;;11.70;99.90;;;;;;6213579;23;20005;-81
2022/09/25 00:05:26;;;;;;;6.65;5.97;;;11.70;99.90;;;;;;6237318;23;20023;-81
2022/09/25 00:07:55;;;;;;;10.07;8.27;;;11.70;99.90;;;;;;6238549;23;20031;-80
2022/09/25 00:10:24;;;;;;;10.32;7.47;;;11.80;99.90;;;;;;6207995;23;20000;-81
2022/09/25 00:12:50;;;;;;;9.65;6.88;;;11.80;99.90;;;;;;6233398;23;19997;-81
2022/09/25 00:15:17;;;;;;;7.85;6.15;;;11.90;99.90;;;;;;6228264;23;20058;-81
2022/09/25 00:17:42;;;;;;;6.60;6.00;;;11.90;99.90;;;;;;6229447;23;19998;-81
2022/09/25 00:20:09;;;;;;;7.28;6.45;;;11.90;99.90;;;;;;6233806;22;20005;-81
2022/09/25 00:22:34;;;;;;;6.38;5.78;;;11.80;99.90;;;;;;6213378;23;19997;-81
2022/09/25 00:25:02;;;;;;;6.75;6.05;;;11.80;99.90;;;;;;6207865;23;20446;-81
2022/09/25 00:27:28;;;;;;;6.00;5.45;;;11.80;99.90;;;;;;6232230;23;19996;-81
2022/09/25 00:29:53;;;;;;;5.90;5.30;;;11.90;99.90;;;;;;6234928;23;20011;-81
2022/09/25 00:32:19;;;;;;;5.38;4.88;;;11.90;99.90;;;;;;6240813;22;20008;-80
2022/09/25 00:34:45;;;;;;;5.78;5.18;;;12.00;99.90;;;;;;6214366;23;20001;-80
2022/09/25 00:37:10;;;;;;;6.13;5.53;;;12.00;99.90;;;;;;6239634;23;20019;-81
2022/09/25 00:39:36;;;;;;;6.05;5.32;;;12.00;99.90;;;;;;6240599;22;20015;-81
2022/09/25 00:42:02;;;;;;;5.63;5.13;;;12.00;99.90;;;;;;6240744;22;20008;-81
2022/09/25 00:44:57;;;;;;;5.80;5.18;;;12.00;99.90;;;;;;6240221;22;20008;-81
2022/09/25 00:47:41;;;;;;;5.85;4.82;;;12.00;99.90;;;;;;6240353;23;20000;-80
2022/09/25 00:50:45;;;;;;;5.95;5.18;;;11.90;99.90;;;;;;6240390;23;20047;-81
2022/09/25 00:53:20;;;;;;;5.85;4.80;;;11.80;99.90;;;;;;6239995;22;20061;-81
2022/09/25 00:55:46;;;;;;;5.75;5.10;;;11.80;99.90;;;;;;6240950;22;20015;-82
2022/09/25 00:58:15;;;;;;;5.03;4.53;;;11.70;99.90;;;;;;6240228;23;20004;-81
2022/09/25 01:00:40;;;;;;;6.30;5.70;;;11.70;99.90;;;;;;6214648;23;20003;-81
2022/09/25 01:03:07;;;;;;;7.63;6.10;;;11.60;99.90;;;;;;6240829;23;19997;-80
2022/09/25 01:05:37;;;;;;;8.02;6.15;;;11.60;99.90;;;;;;6239842;23;19996;-81
2022/09/25 01:08:06;;;;;;;8.25;7.32;;;11.60;99.90;;;;;;6239960;22;19993;-81
2022/09/25 01:10:32;;;;;;;10.15;7.70;;;11.50;99.90;;;;;;6240290;23;20065;-81
2022/09/25 01:12:59;;;;;;;9.07;7.70;;;11.50;99.90;;;;;;6214082;23;20009;-81
2022/09/25 01:15:42;;;;;;;7.88;6.80;;;11.40;99.90;;;;;;6240964;23;20028;-81
2022/09/25 01:18:30;;;;;;;9.55;7.72;;;11.40;99.90;;;;;;6240931;22;20007;-82
2022/09/25 01:21:17;;;;;;;8.70;7.75;;;11.30;99.90;;;;;;6215079;22;20073;-81
2022/09/25 01:23:48;;;;;;;9.55;7.15;;;11.30;99.90;;;;;;6241041;23;20052;-81
2022/09/25 01:26:49;;;;;;;10.65;6.95;;;11.20;99.90;;;;;;6214743;23;20134;-80
2022/09/25 01:29:31;;;;;;;8.52;7.30;;;11.20;99.90;;;;;;6215806;22;20013;-80
2022/09/25 01:32:12;;;;;;;8.03;7.00;;;11.20;99.90;;;;;;6215442;22;20075;-81
2022/09/25 01:34:49;;;;;;;7.30;6.43;;;11.10;99.90;;;;;;6240588;23;20235;-81
2022/09/25 01:37:38;;;;;;;7.30;6.40;;;11.10;99.90;;;;;;6240517;23;20013;-81
2022/09/25 01:40:20;;;;;;;8.15;7.07;;;11.10;99.90;;;;;;6240888;22;20004;-81
2022/09/25 01:42:52;;;;;;;8.50;7.60;;;11.10;99.90;;;;;;6240936;23;20024;-81
2022/09/25 01:45:41;;;;;;;9.27;7.68;;;11.00;99.90;;;;;;6214964;23;20000;-81
2022/09/25 01:48:09;;;;;;;9.60;7.63;;;11.00;99.90;;;;;;6240856;23;19993;-81
2022/09/25 01:50:45;;;;;;;8.38;6.90;;;11.00;99.90;;;;;;6241713;22;19999;-81
2022/09/25 01:53:18;;;;;;;6.80;6.10;;;10.90;99.90;;;;;;6240746;22;20005;-82
2022/09/25 01:55:49;;;;;;;7.00;5.88;;;10.90;99.90;;;;;;6240856;23;20012;-81
2022/09/25 01:58:31;;;;;;;6.57;5.90;;;10.90;99.90;;;;;;6241141;23;20001;-80
2022/09/25 02:01:21;;;;;;;6.93;5.97;;;10.90;99.90;;;;;;6241671;23;20048;-81
2022/09/25 02:04:02;;;;;;;7.03;6.07;;;10.90;99.90;;;;;;6241321;23;19995;-82
2022/09/25 02:06:31;;;;;;;6.30;5.70;;;10.90;99.90;;;;;;6241311;22;20017;-82
2022/09/25 02:09:06;;;;;;;5.95;5.35;;;10.80;99.90;;;;;;6241815;22;20005;-82
2022/09/25 02:11:42;;;;;;;6.47;5.65;;;10.80;99.90;;;;;;6242202;23;20198;-82
2022/09/25 02:14:19;;;;;;;6.13;5.53;;;10.80;99.90;;;;;;6241540;23;20005;-81
2022/09/25 02:16:47;;;;;;;6.35;5.45;;;10.80;99.90;;;;;;6241427;23;20024;-80
2022/09/25 02:22:09;;;;;;;6.85;5.63;;;10.80;99.90;;;;;;6232449;22;20007;-76
2022/09/25 02:24:59;;;;;;;6.53;5.35;;;10.80;99.90;;;;;;6231568;22;20009;-81
2022/09/25 02:27:28;;;;;;;6.22;5.43;;;10.70;99.90;;;;;;6195758;23;20001;-81
2022/09/25 02:29:55;;;;;;;6.57;5.72;;;10.70;99.90;;;;;;6201145;23;20019;-79
2022/09/25 02:32:25;;;;;;;6.47;5.75;;;10.80;99.90;;;;;;6205734;23;20005;-79
2022/09/25 02:34:51;;;;;;;7.15;6.18;;;10.70;99.90;;;;;;6210853;23;19989;-78
2022/09/25 02:37:17;;;;;;;6.88;6.20;;;10.70;99.90;;;;;;6229551;23;20298;-82
2022/09/25 02:39:48;;;;;;;6.82;5.95;;;10.80;99.90;;;;;;6225076;23;20349;-82
2022/09/25 02:42:17;;;;;;;7.93;5.93;;;10.80;99.90;;;;;;6201060;23;20001;-81
2022/09/25 02:45:10;;;;;;;7.82;5.40;;;10.80;99.90;;;;;;6200540;23;20097;-82
2022/09/25 02:47:38;;;;;;;;;;;10.80;99.90;;;;;;6225975;23;20077;-82
2022/09/25 02:50:34;;;;;;;6.72;6.03;;;10.80;99.90;;;;;;6202480;23;19907;-81
2022/09/25 02:53:24;;;;;;;6.50;5.90;;;10.90;99.90;;;;;;6200915;23;20080;-81
2022/09/25 02:56:01;;;;;;;5.90;5.10;;;10.90;99.90;;;;;;6227252;23;20021;-78
2022/09/25 02:58:36;;;;;;;4.78;4.38;;;11.00;99.90;;;;;;6209707;23;19985;-78
2022/09/25 03:01:05;;;;;;;6.07;5.47;;;10.90;99.90;;;;;;6207102;23;20016;-82
2022/09/25 03:03:32;;;;;;;6.03;5.43;;;10.90;99.90;;;;;;6203675;23;20013;-81
2022/09/25 03:05:59;;;;;;;6.68;6.03;;;10.90;99.90;;;;;;6204668;23;20013;-78
2022/09/25 03:08:40;;;;;;;7.60;5.90;;;10.90;99.90;;;;;;6209387;23;20075;-77
2022/09/25 03:11:07;;;;;;;6.53;5.82;;;10.80;99.90;;;;;;6209122;23;20016;-81
2022/09/25 03:13:33;;;;;;;6.00;5.40;;;10.70;99.90;;;;;;6206126;23;20074;-80
2022/09/25 03:16:05;;;;;;;5.47;4.80;;;10.70;99.90;;;;;;6205776;23;20005;-81
2022/09/25 03:18:31;;;;;;;5.93;5.28;;;10.70;99.90;;;;;;6205463;23;20001;-81
2022/09/25 03:20:57;;;;;;;4.80;4.35;;;10.70;99.90;;;;;;6227433;23;20024;-80
2022/09/25 03:23:23;;;;;;;4.45;4.05;;;10.60;99.90;;;;;;6223018;23;20049;-81
2022/09/25 03:25:52;;;;;;;4.78;4.28;;;10.50;99.90;;;;;;6233653;23;20019;-80
2022/09/25 03:28:18;;;;;;;5.03;4.47;;;10.50;99.90;;;;;;6209188;23;20507;-82
2022/09/25 03:30:55;;;;;;;4.88;4.32;;;10.50;99.90;;;;;;6208431;23;20012;-82
2022/09/25 03:33:21;;;;;;;5.38;4.88;;;10.40;99.90;;;;;;6234837;23;20024;-82
2022/09/25 03:35:46;;;;;;;7.40;5.75;;;10.50;99.90;;;;;;6234697;23;20028;-81
2022/09/25 03:38:12;;;;;;;7.55;6.28;;;10.40;99.90;;;;;;6233279;23;20053;-81
2022/09/25 03:40:38;;;;;;;6.90;6.20;;;10.40;99.90;;;;;;6234148;23;20004;-78
2022/09/25 03:43:04;;;;;;;6.55;5.88;;;10.40;99.90;;;;;;6235211;23;20000;-80
2022/09/25 03:45:30;;;;;;;7.93;6.15;;;10.40;99.90;;;;;;6234251;23;20009;-81
2022/09/25 03:47:55;;;;;;;5.70;4.85;;;10.40;99.90;;;;;;6233644;22;20009;-79
2022/09/25 03:50:21;;;;;;;5.00;4.38;;;10.40;99.90;;;;;;6233375;23;20000;-82
2022/09/25 03:52:46;;;;;;;5.30;4.80;;;10.40;99.90;;;;;;6205571;23;20005;-82
2022/09/25 03:55:12;;;;;;;5.43;4.93;;;10.30;99.90;;;;;;6232503;23;19996;-83
2022/09/25 03:57:38;;;;;;;5.88;5.00;;;10.30;99.90;;;;;;6234902;23;19985;-82
2022/09/25 04:00:05;;;;;;;5.38;4.45;;;10.40;99.90;;;;;;6233918;23;20004;-81
2022/09/25 04:02:31;;;;;;;5.30;4.72;;;10.40;99.90;;;;;;6233502;23;19996;-81
2022/09/25 04:04:58;;;;;;;4.82;4.40;;;10.40;99.90;;;;;;6206310;23;20012;-82
2022/09/25 04:07:24;;;;;;;5.80;5.20;;;10.50;99.90;;;;;;6207387;23;20001;-81
2022/09/25 04:09:49;;;;;;;7.88;6.25;;;10.50;99.90;;;;;;6205761;23;20011;-83
2022/09/25 04:12:16;;;;;;;6.53;5.93;;;10.50;99.90;;;;;;6233452;23;19996;-82
2022/09/25 04:14:44;;;;;;;6.15;5.13;;;10.50;99.90;;;;;;6232651;23;20004;-81
2022/09/25 04:17:10;;;;;;;5.63;5.05;;;10.50;99.90;;;;;;6207125;23;20036;-82
2022/09/25 04:19:36;;;;;;;5.65;4.93;;;10.50;99.90;;;;;;6205981;23;20054;-80
2022/09/25 04:22:02;;;;;;;4.88;4.38;;;10.50;99.90;;;;;;6206937;23;19996;-79
2022/09/25 04:27:12;;;;;;;4.60;4.15;;;10.50;99.90;;;;;;6233228;23;20031;-81
2022/09/25 04:29:37;;;;;;;4.53;4.13;;;10.40;99.90;;;;;;6206664;23;20009;-82
2022/09/25 04:34:47;;;;;;;4.63;3.97;;;10.50;99.90;;;;;;6233023;23;20015;-82
2022/09/25 04:37:14;;;;;;;3.85;3.47;;;10.50;99.90;;;;;;6232570;23;20005;-79
2022/09/25 04:39:40;;;;;;;4.93;3.90;;;10.60;99.90;;;;;;6207140;23;20058;-82
2022/09/25 04:42:07;;;;;;;4.38;3.97;;;10.60;99.90;;;;;;6232514;23;20402;-81
2022/09/25 04:44:32;;;;;;;5.38;4.63;;;10.70;99.90;;;;;;6233877;23;20005;-81
2022/09/25 04:46:58;;;;;;;4.65;4.18;;;10.70;99.90;;;;;;6231215;23;20027;-80
2022/09/25 04:49:24;;;;;;;4.75;4.22;;;10.80;99.90;;;;;;6224309;23;20004;-83
2022/09/25 04:51:49;;;;;;;4.32;3.67;;;10.80;99.90;;;;;;6220363;23;20001;-82
2022/09/25 04:54:15;;;;;;;4.85;4.20;;;10.90;99.90;;;;;;6222077;23;20003;-82
2022/09/25 04:56:43;;;;;;;4.55;4.15;;;10.90;99.90;;;;;;6220389;23;20285;-81
2022/09/25 04:59:16;;;;;;;5.18;4.03;;;10.90;99.90;;;;;;6221858;23;20510;-81
2022/09/25 05:01:41;;;;;;;4.43;4.03;;;10.90;99.90;;;;;;6196142;23;20000;-83
2022/09/25 05:04:07;;;;;;;4.25;3.30;;;10.90;99.90;;;;;;6224987;23;20003;-80
2022/09/25 05:06:35;;;;;;;4.88;3.70;;;10.90;99.90;;;;;;6226153;23;20076;-82
2022/09/25 05:09:02;;;;;;;4.90;4.13;;;11.00;99.90;;;;;;6224812;23;20056;-79
2022/09/25 05:11:27;;;;;;;4.28;3.85;;;11.00;99.90;;;;;;6197856;22;20012;-82
2022/09/25 05:13:53;;;;;;;5.05;4.50;;;11.00;99.90;;;;;;6225474;23;20012;-82
2022/09/25 05:16:19;;;;;;;4.47;4.00;;;11.00;99.90;;;;;;6222815;23;20012;-82
2022/09/25 05:18:44;;;;;;;5.82;4.50;;;11.00;99.90;;;;;;6225144;23;20031;-82
2022/09/25 05:21:10;;;;;;;4.55;4.10;;;11.00;99.90;;;;;;6226129;22;20004;-82
2022/09/25 05:23:36;;;;;;;4.95;4.03;;;11.00;99.90;;;;;;6225344;23;20009;-81
2022/09/25 05:26:02;;;;;;;4.05;3.65;;;11.00;99.90;;;;;;6215450;23;20016;-77
2022/09/25 05:28:29;;;;;;;3.70;3.40;;;11.00;99.90;;;;;;6242155;22;20001;-77
2022/09/25 05:30:57;;;;;;;3.92;3.63;;;11.00;99.90;;;;;;6235186;22;20009;-80
2022/09/25 05:33:23;;;;;;;3.70;3.40;;;11.00;99.90;;;;;;6225171;23;20031;-82
2022/09/25 05:35:48;;;;;;;3.58;3.28;;;11.00;99.90;;;;;;6231143;23;20001;-79
2022/09/25 05:38:14;;;;;;;3.88;3.53;;;11.10;99.90;;;;;;6239457;22;20017;-79
2022/09/25 05:40:40;;;;;;;3.30;3.00;;;11.10;99.90;;;;;;6241781;22;20020;-79
2022/09/25 05:43:06;;;;;;;3.25;2.95;;;11.10;99.90;;;;;;6240783;22;20034;-81
2022/09/25 05:45:33;;;;;;;3.58;2.80;;;11.10;99.90;;;;;;6207260;22;20043;-78
2022/09/25 05:48:08;;;;;;;3.85;2.97;;;11.10;99.90;;;;;;6241048;22;20024;-79
2022/09/25 05:50:34;;;;;;;3.05;2.63;;;11.10;99.90;;;;;;6238997;22;20066;-84
2022/09/25 05:53:01;;;;;;;2.75;2.55;;;11.10;99.90;;;;;;6238565;22;19985;-79
2022/09/25 05:55:28;;;;;;;3.03;2.72;;;11.20;99.90;;;;;;6226970;22;20024;-81
2022/09/25 05:57:59;;;;;;;2.67;2.47;;;11.20;99.90;;;;;;6225759;23;20012;-84
2022/09/25 06:00:25;;;;;;;2.83;2.63;;;11.30;99.90;;;;;;6222535;23;20008;-82
2022/09/25 06:02:52;;;;;;;2.97;2.70;;;11.30;99.90;;;;;;6223329;23;20005;-81
2022/09/25 06:05:17;;;;;;;3.40;2.78;;;11.30;99.90;;;;;;6196394;23;20020;-83
2022/09/25 06:07:43;;;;;;;3.00;2.65;;;11.40;99.90;;;;;;6225798;22;20026;-84
2022/09/25 06:10:09;;;;;;;2.75;2.20;;;11.50;99.90;;;;;;6197297;23;20051;-81
2022/09/25 06:12:35;;;;;;;2.50;2.30;;;11.60;99.90;;;;;;6226580;23;20032;-83
2022/09/25 06:15:01;;;;;;;2.75;2.55;;;11.60;99.90;;;;;;6197954;23;20031;-80
2022/09/25 06:17:26;;;;;;;2.63;2.30;;;11.70;99.90;;;;;;6225132;23;20000;-79
2022/09/25 06:19:52;;;;;;;2.30;2.10;;;11.70;99.90;;;;;;6240138;22;20000;-81
2022/09/25 06:22:17;;;;;;;2.50;2.10;;;11.70;99.90;;;;;;6232940;23;20005;-82
2022/09/25 06:24:44;;;;;;;2.20;2.00;;;11.80;99.90;;;;;;6239632;22;20069;-78
2022/09/25 06:27:10;;;;;;;1.65;1.55;;;11.80;99.90;;;;;;6237404;23;20052;-81
2022/09/25 06:29:35;;;;;;;1.80;1.70;;;11.80;99.90;;;;;;6203571;23;20013;-82
2022/09/25 06:32:02;;;;;;;1.40;1.30;;;11.90;99.90;;;;;;6223599;23;20379;-83
2022/09/25 06:34:28;;;;;;;1.60;1.50;;;11.90;99.90;;;;;;6232393;23;19992;-80
2022/09/25 06:36:53;;;;;;;1.73;1.63;;;12.00;99.90;;;;;;6240298;22;20000;-80
2022/09/25 06:39:19;;;;;;;1.52;1.42;;;12.00;99.90;;;;;;6224624;23;20022;-82
2022/09/25 06:41:45;;;;;;;2.63;2.33;;;12.10;99.90;;;;;;6226433;23;20087;-83
2022/09/25 06:44:11;;;;;;;2.00;1.90;;;12.10;99.90;;;;;;6200850;23;20032;-83
2022/09/25 06:46:37;;;;;;;3.03;2.42;;;12.10;99.90;;;;;;6234336;23;20000;-79
2022/09/25 06:49:02;;;;;;;2.97;2.63;;;12.20;99.90;;;;;;6211433;23;20001;-80
2022/09/25 06:51:33;;;;;;;3.13;2.40;;;12.30;99.90;;;;;;6215740;23;20047;-80
2022/09/25 06:53:59;;;;;;;2.78;2.58;;;12.30;99.90;;;;;;6238816;23;20008;-82
2022/09/25 06:56:25;;;;;;;3.95;2.42;;;12.40;99.90;;;;;;6233967;23;20027;-83
2022/09/25 06:58:50;;;;;;;3.92;2.75;;;12.40;99.90;;;;;;6209115;23;20000;-78
2022/09/25 07:01:16;;;;;;;3.03;2.10;;;12.50;99.90;;;;;;6242016;22;19996;-80
2022/09/25 07:03:45;;;;;;;3.22;2.45;;;12.60;99.90;;;;;;6233687;22;20004;-81
2022/09/25 07:06:14;;;;;;;4.00;2.47;;;12.70;99.90;;;;;;6227467;23;20004;-83
2022/09/25 07:08:42;;;;;;;3.35;2.40;;;12.90;99.90;;;;;;6229098;22;20009;-82
2022/09/25 07:11:12;;;;;;;3.28;2.45;;;13.10;99.90;;;;;;6226899;23;20410;-84
2022/09/25 07:13:38;;;;;;;2.17;1.98;;;13.30;99.90;;;;;;6224990;23;20339;-84
2022/09/25 07:16:12;;;;;;;2.65;2.05;;;13.50;99.90;;;;;;6201239;23;20261;-83
2022/09/25 07:18:37;;;;;;;1.88;1.77;;;13.80;99.90;;;;;;6224369;23;20005;-83
2022/09/25 07:21:06;;;;;;;2.10;1.90;;;13.90;99.90;;;;;;6224640;23;20011;-83
2022/09/25 07:23:33;;;;;;;2.33;2.15;;;14.00;99.90;;;;;;6226835;23;20012;-81
2022/09/25 07:26:10;;;;;;;2.67;2.40;;;14.00;99.90;;;;;;6196826;23;20092;-82
2022/09/25 07:28:38;;;;;;;2.38;2.17;;;14.00;99.90;;;;;;6223003;23;20332;-81
2022/09/25 07:31:18;;;;;;;2.03;1.90;;;14.20;99.90;;;;;;6221722;23;20054;-82
2022/09/25 07:33:44;;;;;;;5.70;4.70;;;14.30;99.90;;;;;;6220350;23;20065;-83
2022/09/25 07:36:11;;;;;;;5.57;4.35;;;14.50;99.90;;;;;;6192285;23;20107;-82
2022/09/25 07:38:37;;;;;;;4.80;3.95;;;14.60;99.90;;;;;;6218037;23;20000;-82
2022/09/25 07:41:09;;;;;;;4.07;3.53;;;14.60;99.90;;;;;;6225466;23;20104;-80
2022/09/25 07:43:37;;;;;;;6.13;3.72;;;14.60;99.90;;;;;;6223724;23;20009;-82
2022/09/25 07:46:03;;;;;;;3.75;3.20;;;14.60;99.90;;;;;;6225266;23;20000;-80
2022/09/25 07:48:30;;;;;;;3.28;2.97;;;14.70;99.90;;;;;;6223851;23;20001;-81
2022/09/25 07:51:03;;;;;;;4.05;3.42;;;14.80;99.90;;;;;;6224615;23;20349;-82
2022/09/25 07:53:29;;;;;;;4.13;3.78;;;14.80;99.90;;;;;;6197274;23;20028;-80
2022/09/25 07:56:00;;;;;;;4.38;3.25;;;14.90;99.90;;;;;;6222885;23;20008;-82
2022/09/25 07:58:26;;;;;;;4.80;4.25;;;14.80;99.90;;;;;;6198560;23;20066;-78
2022/09/25 08:00:57;;;;;;;6.90;5.05;;;15.00;99.90;;;;;;6223915;23;20011;-83
2022/09/25 08:03:23;;;;;;;6.57;5.40;;;15.10;99.90;;;;;;6225435;23;20015;-82
2022/09/25 08:05:56;;;;;;;7.22;4.93;;;15.20;99.90;;;;;;6222919;23;20085;-82
2022/09/25 08:08:22;;;;;;;6.80;4.72;;;15.40;99.80;;;;;;6223159;23;20466;-82
2022/09/25 08:10:48;;;;;;;6.05;5.40;;;15.50;99.90;;;;;;6222576;23;20036;-81
2022/09/25 08:13:16;;;;;;;5.47;4.60;;;15.70;99.00;;;;;;6222592;23;20020;-82
2022/09/25 08:15:42;;;;;;;5.00;4.55;;;15.80;99.00;;;;;;6199019;23;20096;-82
2022/09/25 08:18:08;;;;;;;4.55;4.15;;;15.70;98.90;;;;;;6223755;23;20023;-80
2022/09/25 08:20:38;;;;;;;6.07;5.47;;;15.60;99.30;;;;;;6224112;23;20023;-82
2022/09/25 08:23:44;;;;;;;7.20;6.40;;;15.50;99.00;;;;;;6211914;22;20017;-86
2022/09/25 08:29:57;;;;;;;8.55;7.60;;;15.30;99.00;;;;;;6192150;23;20040;-84
2022/09/25 08:32:46;;;;;;;8.43;7.18;;;15.30;99.60;;;;;;6191910;23;19985;-84
2022/09/25 08:49:23;;;;;;;8.10;7.13;;;16.30;96.90;;;;;;6071633;23;20061;-84
2022/09/25 08:51:56;;;;;;;11.80;10.30;;;16.00;97.40;;;;;;6071767;23;20007;-85
2022/09/25 08:54:30;;;;;;;8.63;7.80;;;15.80;97.00;;;;;;6024884;23;20093;-85
2022/09/25 08:57:44;;;;;;;11.70;9.93;;;15.70;97.80;;;;;;6071723;23;20063;-85
2022/09/25 09:00:36;;;;;;;10.57;9.48;;;15.40;98.00;;;;;;6016653;23;20012;-84
2022/09/25 09:04:05;;;;;;;9.75;8.75;;;15.20;98.70;;;;;;5994234;23;20003;-83
2022/09/25 09:06:32;;;;;;;12.50;9.65;;;15.00;99.60;;;;;;5943806;24;20001;-84
2022/09/25 09:09:06;;;;;;;12.70;10.82;;;14.90;99.90;;;;;;5968480;24;20012;-85
2022/09/25 09:11:38;;;;;;;9.95;8.77;;;14.80;99.90;;;;;;6109278;23;20340;-85
2022/09/25 09:14:06;;;;;;;11.80;10.60;;;14.70;99.90;;;;;;6192249;23;20024;-85
2022/09/25 09:16:45;;;;;;;10.98;9.50;;;14.70;99.90;;;;;;6191570;23;20336;-85
2022/09/25 09:19:17;;;;;;;10.40;9.18;;;14.70;99.90;;;;;;6208071;23;20011;-84
2022/09/25 09:22:28;;;;;;;10.30;9.30;;;14.70;99.90;;;;;;6237700;22;20000;-84
2022/09/25 09:24:58;;;;;;;11.73;9.70;;;14.80;99.90;;;;;;6225722;22;20019;-85
2022/09/25 09:27:33;;;;;;;10.50;8.40;;;15.00;99.90;;;;;;6192043;23;20060;-84
2022/09/25 09:30:20;;;;;;;8.70;7.65;;;15.10;99.90;;;;;;6191616;23;20003;-85
2022/09/25 09:33:01;;;;;;;7.80;6.80;;;15.20;99.90;;;;;;6192664;23;20324;-85
2022/09/25 09:36:10;;;;;;;9.57;8.57;;;15.20;99.90;;;;;;6215176;22;20016;-86
2022/09/25 09:38:57;;;;;;;8.88;7.97;;;15.20;99.80;;;;;;6216154;23;20009;-84
2022/09/25 09:41:50;;;;;;;8.45;7.55;;;15.20;99.70;;;;;;6221348;22;20009;-83
2022/09/25 09:44:38;;;;;;;9.02;8.13;;;15.30;99.60;;;;;;6189643;23;20012;-84
2022/09/25 09:47:24;;;;;;;9.50;8.40;;;15.20;99.60;;;;;;6214503;23;20036;-85
2022/09/25 09:50:06;;;;;;;7.82;7.03;;;15.30;99.30;;;;;;6195984;23;20001;-85
2022/09/25 09:52:38;;;;;;;10.40;7.60;;;15.30;99.70;;;;;;6190721;23;20044;-85
2022/09/25 09:55:37;;;;;;;7.22;6.45;;;15.40;99.40;;;;;;6202280;23;20005;-85
2022/09/25 09:58:10;;;;;;;6.47;5.88;;;15.50;99.30;;;;;;6217484;23;20083;-85
2022/09/25 10:00:38;;;;;;;5.97;5.45;;;15.70;98.90;;;;;;6190281;23;20424;-85
2022/09/25 10:03:20;;;;;;;5.93;4.90;;;15.90;98.80;;;;;;6191598;23;19997;-85
2022/09/25 10:05:58;;;;;;;;;;;16.50;97.80;;;;;;6193762;23;20017;-85
2022/09/25 10:08:24;;;;;;;5.72;5.13;;;16.80;96.50;;;;;;6191204;23;19904;-85
2022/09/25 10:10:55;;;;;;;7.00;6.30;;;17.10;95.70;;;;;;6193050;23;20047;-84
2022/09/25 10:13:31;;;;;;;6.55;5.95;;;17.10;94.80;;;;;;6216388;23;20008;-85
2022/09/25 10:16:17;;;;;;;5.43;4.93;;;17.10;94.70;;;;;;6191906;23;20004;-85
2022/09/25 10:19:06;;;;;;;7.50;6.70;;;17.40;94.60;;;;;;6214706;23;20005;-85
2022/09/25 10:21:46;;;;;;;9.57;8.68;;;17.50;93.30;;;;;;6190389;23;20013;-85
2022/09/25 10:24:44;;;;;;;8.90;7.88;;;17.50;92.00;;;;;;6189599;23;20017;-84
2022/09/25 10:27:32;;;;;;;8.93;8.02;;;17.70;92.20;;;;;;6215398;23;20344;-84
2022/09/25 10:30:24;;;;;;;6.65;5.95;;;17.60;92.00;;;;;;6217103;23;20009;-84
2022/09/25 10:33:00;;;;;;;8.88;7.03;;;17.60;92.40;;;;;;6199795;23;20017;-84
2022/09/25 10:35:45;;;;;;;7.10;5.43;;;17.50;92.40;;;;;;6225977;23;20005;-86
2022/09/25 10:38:36;;;;;;;5.10;4.60;;;17.50;92.70;;;;;;6227022;23;20029;-84
2022/09/25 10:41:17;;;;;;;3.95;3.58;;;18.10;92.50;;;;;;6228985;23;20001;-84
2022/09/25 10:43:59;;;;;;;3.65;3.15;;;18.70;90.80;;;;;;6225323;23;20069;-85
2022/09/25 10:52:10;;;;;;;6.80;6.15;;;18.50;87.00;;;;;;6192427;23;20059;-84
2022/09/25 10:54:36;;;;;;;5.03;4.60;;;18.00;88.60;;;;;;6219356;22;20491;-85
2022/09/25 10:57:16;;;;;;;5.32;4.80;;;17.90;89.90;;;;;;6215671;23;20421;-84
2022/09/25 10:59:48;;;;;;;6.00;5.30;;;17.70;90.40;;;;;;6215965;22;20009;-85
2022/09/25 11:02:46;;;;;;;7.50;5.90;;;17.60;90.50;;;;;;6192708;23;19997;-85
2022/09/25 11:05:35;;;;;;;5.55;5.03;;;17.50;90.80;;;;;;6212104;23;20383;-83
2022/09/25 11:08:05;;;;;;;5.28;4.78;;;17.40;91.00;;;;;;6191851;23;20001;-84
2022/09/25 11:10:43;;;;;;;4.57;4.13;;;17.40;91.20;;;;;;6192783;23;20029;-83
2022/09/25 11:13:27;;;;;;;6.22;5.72;;;17.40;91.40;;;;;;6216739;23;20101;-85
2022/09/25 11:15:58;;;;;;;5.65;4.90;;;17.40;91.20;;;;;;6216945;23;20001;-85
2022/09/25 11:18:35;;;;;;;5.00;4.55;;;17.60;91.20;;;;;;6191588;23;20028;-85
2022/09/25 11:21:02;;;;;;;4.13;3.70;;;17.80;90.80;;;;;;6192334;23;20016;-84
2022/09/25 11:23:28;;;;;;;4.90;4.45;;;18.00;90.40;;;;;;6213554;23;20012;-85
2022/09/25 11:26:16;;;;;;;5.45;4.95;;;18.10;90.10;;;;;;6198837;23;20270;-84
2022/09/25 11:28:51;;;;;;;7.35;5.90;;;18.30;89.20;;;;;;6222682;23;20048;-85
2022/09/25 11:31:17;;;;;;;6.25;5.10;;;18.50;88.10;;;;;;6224765;23;20044;-85
2022/09/25 11:33:53;;;;;;;6.93;6.05;;;19.00;86.60;;;;;;6198080;23;20005;-84
2022/09/25 11:36:35;;;;;;;7.93;6.22;;;19.20;82.30;;;;;;6199058;23;20351;-85
2022/09/25 11:42:03;;;;;;;4.80;3.78;;;19.10;81.90;;;;;;6223185;23;19931;-83
2022/09/25 11:44:56;;;;;;;4.22;3.70;;;18.90;83.50;;;;;;6224417;23;20269;-84
2022/09/25 11:47:46;;;;;;;5.95;5.38;;;18.90;83.30;;;;;;6221877;22;20009;-84
2022/09/25 11:50:15;;;;;;;8.30;6.68;;;18.80;82.80;;;;;;6221904;23;20005;-84
2022/09/25 11:52:50;;;;;;;4.45;4.05;;;18.60;82.50;;;;;;6195642;23;20016;-84
2022/09/25 11:55:46;;;;;;;7.03;5.50;;;18.30;84.80;;;;;;6197552;23;20012;-84
2022/09/25 11:58:20;;;;;;;4.30;3.90;;;18.30;84.30;;;;;;6221642;23;20050;-84
2022/09/25 12:01:16;;;;;;;5.90;5.38;;;18.10;85.40;;;;;;6195454;23;20052;-84
2022/09/25 12:03:50;;;;;;;4.28;3.88;;;18.20;83.80;;;;;;6195764;23;20001;-85
2022/09/25 12:06:52;;;;;;;5.65;3.75;;;18.30;85.10;;;;;;6197215;23;20502;-84
2022/09/25 12:09:43;;;;;;;2.80;2.60;;;18.60;84.80;;;;;;6201664;23;20012;-84
2022/09/25 12:12:26;;;;;;;4.20;3.80;;;18.70;83.20;;;;;;6203655;23;20409;-84
2022/09/25 12:15:13;;;;;;;4.20;3.67;;;18.80;79.70;;;;;;6202774;23;20028;-84
2022/09/25 12:18:10;;;;;;;6.55;4.88;;;18.80;80.10;;;;;;6198371;23;20004;-84
2022/09/25 12:20:54;;;;;;;6.45;4.95;;;18.60;80.50;;;;;;6224238;23;20027;-85
2022/09/25 12:23:30;;;;;;;4.75;4.25;;;18.40;81.20;;;;;;6196257;23;20115;-84
2022/09/25 12:26:16;;;;;;;6.05;5.30;;;18.10;83.40;;;;;;6201431;23;20367;-85
2022/09/25 12:29:05;;;;;;;8.10;5.05;;;18.10;85.20;;;;;;6196512;23;20340;-83
2022/09/25 12:31:42;;;;;;;6.43;5.82;;;18.10;85.30;;;;;;6199363;23;20093;-85
2022/09/25 12:34:39;;;;;;;6.13;5.53;;;18.30;85.10;;;;;;6200762;23;20011;-84
2022/09/25 12:37:37;;;;;;;6.25;5.45;;;18.40;84.60;;;;;;6165553;23;20050;-83
2022/09/25 12:40:12;;;;;;;7.45;6.72;;;18.30;85.90;;;;;;6203026;23;20012;-85
2022/09/25 12:42:50;;;;;;;9.15;6.60;;;18.30;86.20;;;;;;6223136;23;20549;-84
2022/09/25 12:45:30;;;;;;;7.85;7.00;;;18.20;86.30;;;;;;6224883;22;20016;-84
2022/09/25 12:48:12;;;;;;;7.38;6.68;;;18.20;85.90;;;;;;6225040;23;20050;-84
2022/09/25 12:50:58;;;;;;;6.45;5.35;;;18.10;86.10;;;;;;6196078;23;20009;-84
2022/09/25 12:53:37;;;;;;;6.97;6.38;;;18.00;87.30;;;;;;6198950;23;20028;-85
2022/09/25 12:56:26;;;;;;;7.70;6.90;;;17.80;87.50;;;;;;6224818;23;19996;-84
2022/09/25 12:59:10;;;;;;;6.55;5.90;;;17.60;88.40;;;;;;6226625;23;20003;-84
2022/09/25 13:02:10;;;;;;;8.25;6.35;;;17.20;89.80;;;;;;6198247;23;20045;-85
2022/09/25 13:05:02;;;;;;;7.82;7.03;;;16.90;90.30;;;;;;6197708;23;20005;-85
2022/09/25 13:07:53;;;;;;;8.35;6.88;;;16.80;90.40;;;;;;6225628;22;20008;-85
2022/09/25 13:10:28;;;;;;;9.50;6.70;;;16.60;90.90;;;;;;6196675;23;20015;-85
2022/09/25 13:12:59;;;;;;;10.27;7.28;;;16.60;91.40;;;;;;6223525;23;20009;-85
2022/09/25 13:15:29;;;;;;;6.50;5.57;;;16.60;91.30;;;;;;6198367;23;20007;-84
2022/09/25 13:17:57;;;;;;;7.53;6.65;;;16.40;91.70;;;;;;6224380;23;20096;-84
2022/09/25 13:20:30;;;;;;;12.07;7.47;;;16.30;92.00;;;;;;6224393;23;20024;-84
2022/09/25 13:23:02;;;;;;;;;;;16.30;91.90;;;;;;6196957;23;20090;-84
2022/09/25 13:25:30;;;;;;;7.68;6.13;;;16.10;92.20;;;;;;6223719;23;19923;-85
2022/09/25 13:28:06;;;;;;;10.63;7.00;;;15.90;92.70;;;;;;6223691;22;20459;-84
2022/09/25 13:30:31;;;;;;;8.88;7.60;;;15.80;93.40;;;;;;6226236;23;20435;-85
2022/09/25 13:33:01;;;;;;;9.38;8.00;;;15.70;94.00;;;;;;6198553;23;20012;-84
2022/09/25 13:35:28;;;;;;;9.75;8.20;;;15.50;94.20;;;;;;6198198;23;20454;-85
2022/09/25 13:38:13;;;;;;;10.55;8.13;;;15.30;95.10;;;;;;6200762;23;20000;-83
2022/09/25 13:40:43;;;;;;;10.13;8.13;;;15.10;96.10;;;;;;6211506;23;20359;-84
2022/09/25 13:43:27;;;;;;;10.52;8.50;;;14.90;96.80;;;;;;6227136;23;20008;-84
2022/09/25 13:46:15;;;;;;;15.05;10.90;;;14.80;97.10;;;;;;6202200;23;20052;-84
2022/09/25 13:48:41;;;;;;;51.83;23.35;;;14.60;98.00;;;;;;6203092;23;19997;-85
2022/09/25 13:51:16;;;;;;;60.53;24.58;;;14.40;98.80;;;;;;6225580;23;20001;-84
2022/09/25 13:54:02;;;;;;;19.25;11.40;;;14.30;99.30;;;;;;6199357;23;20011;-84